sensor_id;sensor_type;location;lat;lon;timestamp;P1;durP1;ratioP1;P2;durP2;ratioP2
13002;SDS011;6566;57.702;11.984;2022-11-23T00:02:07;22.23;;;13.75;;
13002;SDS011;6566;57.702;11.984;2022-11-23T00:04:32;27.30;;;14.63;;
13002;SDS011;6566;57.702;11.984;2022-11-23T00:06:59;27.50;;;14.15;;
13002;SDS011;6566;57.702;11.984;2022-11-23T00:09:25;24.83;;;13.85;;
13002;SDS011;6566;57.702;11.984;2022-11-23T00:11:52;30.02;;;15.68;;
13002;SDS011;6566;57.702;11.984;2022-11-23T00:14:18;26.27;;;14.20;;
13002;SDS011;6566;57.702;11.984;2022-11-23T00:16:46;27.42;;;14.02;;
13002;SDS011;6566;57.702;11.984;2022-11-23T00:19:13;27.27;;;14.93;;
13002;SDS011;6566;57.702;11.984;2022-11-23T00:21:39;28.20;;;14.77;;
13002;SDS011;6566;57.702;11.984;2022-11-23T00:24:05;26.83;;;14.02;;
13002;SDS011;6566;57.702;11.984;2022-11-23T00:26:31;25.27;;;14.40;;
13002;SDS011;6566;57.702;11.984;2022-11-23T00:28:58;24.35;;;13.13;;
13002;SDS011;6566;57.702;11.984;2022-11-23T00:31:23;26.15;;;13.82;;
13002;SDS011;6566;57.702;11.984;2022-11-23T00:33:54;26.55;;;13.45;;
13002;SDS011;6566;57.702;11.984;2022-11-23T00:36:21;25.27;;;13.00;;
13002;SDS011;6566;57.702;11.984;2022-11-23T00:38:48;22.02;;;12.77;;
13002;SDS011;6566;57.702;11.984;2022-11-23T00:41:15;24.88;;;13.20;;
13002;SDS011;6566;57.702;11.984;2022-11-23T00:43:42;23.45;;;13.43;;
13002;SDS011;6566;57.702;11.984;2022-11-23T00:46:23;24.63;;;13.07;;
13002;SDS011;6566;57.702;11.984;2022-11-23T00:48:51;27.55;;;13.82;;
13002;SDS011;6566;57.702;11.984;2022-11-23T00:51:21;25.95;;;14.15;;
13002;SDS011;6566;57.702;11.984;2022-11-23T00:53:50;24.15;;;13.75;;
13002;SDS011;6566;57.702;11.984;2022-11-23T00:56:17;24.63;;;13.65;;
13002;SDS011;6566;57.702;11.984;2022-11-23T00:58:54;26.33;;;14.80;;
13002;SDS011;6566;57.702;11.984;2022-11-23T01:01:22;24.55;;;13.52;;
13002;SDS011;6566;57.702;11.984;2022-11-23T01:03:50;26.35;;;13.88;;
13002;SDS011;6566;57.702;11.984;2022-11-23T01:06:16;31.48;;;14.77;;
13002;SDS011;6566;57.702;11.984;2022-11-23T01:08:47;25.80;;;14.80;;
13002;SDS011;6566;57.702;11.984;2022-11-23T01:11:13;25.08;;;14.77;;
13002;SDS011;6566;57.702;11.984;2022-11-23T01:13:40;23.65;;;13.30;;
13002;SDS011;6566;57.702;11.984;2022-11-23T01:16:12;28.85;;;14.77;;
13002;SDS011;6566;57.702;11.984;2022-11-23T01:18:39;26.77;;;14.52;;
13002;SDS011;6566;57.702;11.984;2022-11-23T01:21:05;28.02;;;14.70;;
13002;SDS011;6566;57.702;11.984;2022-11-23T01:23:32;28.50;;;14.82;;
13002;SDS011;6566;57.702;11.984;2022-11-23T01:26:02;27.55;;;14.57;;
13002;SDS011;6566;57.702;11.984;2022-11-23T01:28:29;29.98;;;14.60;;
13002;SDS011;6566;57.702;11.984;2022-11-23T01:31:02;30.52;;;14.60;;
13002;SDS011;6566;57.702;11.984;2022-11-23T01:33:28;31.35;;;13.75;;
13002;SDS011;6566;57.702;11.984;2022-11-23T01:35:55;28.27;;;14.27;;
13002;SDS011;6566;57.702;11.984;2022-11-23T01:38:21;23.75;;;13.68;;
13002;SDS011;6566;57.702;11.984;2022-11-23T01:40:48;22.88;;;13.68;;
13002;SDS011;6566;57.702;11.984;2022-11-23T01:43:15;25.23;;;13.65;;
13002;SDS011;6566;57.702;11.984;2022-11-23T01:46:03;27.65;;;15.23;;
13002;SDS011;6566;57.702;11.984;2022-11-23T01:48:36;24.92;;;14.05;;
13002;SDS011;6566;57.702;11.984;2022-11-23T01:51:08;21.65;;;12.95;;
13002;SDS011;6566;57.702;11.984;2022-11-23T01:53:36;27.27;;;12.82;;
13002;SDS011;6566;57.702;11.984;2022-11-23T01:56:04;21.10;;;12.00;;
13002;SDS011;6566;57.702;11.984;2022-11-23T01:58:36;21.00;;;12.10;;
13002;SDS011;6566;57.702;11.984;2022-11-23T02:01:12;21.95;;;12.75;;
13002;SDS011;6566;57.702;11.984;2022-11-23T02:03:40;21.83;;;12.57;;
13002;SDS011;6566;57.702;11.984;2022-11-23T02:06:09;21.73;;;11.63;;
13002;SDS011;6566;57.702;11.984;2022-11-23T02:08:37;19.45;;;11.20;;
13002;SDS011;6566;57.702;11.984;2022-11-23T02:11:09;20.58;;;10.75;;
13002;SDS011;6566;57.702;11.984;2022-11-23T02:13:37;18.65;;;10.65;;
13002;SDS011;6566;57.702;11.984;2022-11-23T02:16:03;16.60;;;10.15;;
13002;SDS011;6566;57.702;11.984;2022-11-23T02:18:33;20.38;;;10.15;;
13002;SDS011;6566;57.702;11.984;2022-11-23T02:21:01;16.88;;;10.77;;
13002;SDS011;6566;57.702;11.984;2022-11-23T02:26:18;18.10;;;10.57;;
13002;SDS011;6566;57.702;11.984;2022-11-23T02:28:52;19.40;;;10.68;;
13002;SDS011;6566;57.702;11.984;2022-11-23T02:31:20;16.08;;;10.00;;
13002;SDS011;6566;57.702;11.984;2022-11-23T02:33:46;16.95;;;10.10;;
13002;SDS011;6566;57.702;11.984;2022-11-23T02:36:29;18.63;;;10.38;;
13002;SDS011;6566;57.702;11.984;2022-11-23T02:38:55;19.65;;;10.02;;
13002;SDS011;6566;57.702;11.984;2022-11-23T02:41:24;18.65;;;10.75;;
13002;SDS011;6566;57.702;11.984;2022-11-23T02:43:51;17.95;;;9.77;;
13002;SDS011;6566;57.702;11.984;2022-11-23T02:46:21;18.08;;;10.23;;
13002;SDS011;6566;57.702;11.984;2022-11-23T02:48:48;15.38;;;9.50;;
13002;SDS011;6566;57.702;11.984;2022-11-23T02:51:14;20.05;;;9.73;;
13002;SDS011;6566;57.702;11.984;2022-11-23T02:53:41;15.80;;;8.95;;
13002;SDS011;6566;57.702;11.984;2022-11-23T02:56:07;18.35;;;9.50;;
13002;SDS011;6566;57.702;11.984;2022-11-23T02:58:34;15.05;;;9.27;;
13002;SDS011;6566;57.702;11.984;2022-11-23T03:01:00;15.88;;;9.48;;
13002;SDS011;6566;57.702;11.984;2022-11-23T03:03:27;14.57;;;9.25;;
13002;SDS011;6566;57.702;11.984;2022-11-23T03:05:54;16.48;;;10.23;;
13002;SDS011;6566;57.702;11.984;2022-11-23T03:08:20;16.83;;;9.50;;
13002;SDS011;6566;57.702;11.984;2022-11-23T03:10:47;16.50;;;9.38;;
13002;SDS011;6566;57.702;11.984;2022-11-23T03:13:13;13.35;;;8.93;;
13002;SDS011;6566;57.702;11.984;2022-11-23T03:15:39;15.38;;;9.30;;
13002;SDS011;6566;57.702;11.984;2022-11-23T03:18:06;17.90;;;9.10;;
13002;SDS011;6566;57.702;11.984;2022-11-23T03:20:33;14.95;;;8.85;;
13002;SDS011;6566;57.702;11.984;2022-11-23T03:22:59;14.13;;;8.38;;
13002;SDS011;6566;57.702;11.984;2022-11-23T03:25:25;16.73;;;8.93;;
13002;SDS011;6566;57.702;11.984;2022-11-23T03:27:51;16.35;;;9.57;;
13002;SDS011;6566;57.702;11.984;2022-11-23T03:30:16;15.63;;;9.02;;
13002;SDS011;6566;57.702;11.984;2022-11-23T03:32:43;18.33;;;9.57;;
13002;SDS011;6566;57.702;11.984;2022-11-23T03:35:10;16.45;;;9.45;;
13002;SDS011;6566;57.702;11.984;2022-11-23T03:37:36;15.23;;;9.38;;
13002;SDS011;6566;57.702;11.984;2022-11-23T03:40:02;13.65;;;8.45;;
13002;SDS011;6566;57.702;11.984;2022-11-23T03:42:28;14.20;;;8.93;;
13002;SDS011;6566;57.702;11.984;2022-11-23T03:44:54;16.17;;;9.05;;
13002;SDS011;6566;57.702;11.984;2022-11-23T03:47:20;16.02;;;8.57;;
13002;SDS011;6566;57.702;11.984;2022-11-23T03:49:48;13.52;;;8.25;;
13002;SDS011;6566;57.702;11.984;2022-11-23T03:52:14;16.42;;;8.35;;
13002;SDS011;6566;57.702;11.984;2022-11-23T03:54:41;14.65;;;8.50;;
13002;SDS011;6566;57.702;11.984;2022-11-23T03:57:08;13.70;;;8.50;;
13002;SDS011;6566;57.702;11.984;2022-11-23T03:59:35;16.92;;;9.35;;
13002;SDS011;6566;57.702;11.984;2022-11-23T04:02:00;14.93;;;9.18;;
13002;SDS011;6566;57.702;11.984;2022-11-23T04:04:27;16.15;;;9.35;;
13002;SDS011;6566;57.702;11.984;2022-11-23T04:06:53;17.67;;;9.40;;
13002;SDS011;6566;57.702;11.984;2022-11-23T04:09:19;17.00;;;9.68;;
13002;SDS011;6566;57.702;11.984;2022-11-23T04:11:45;15.98;;;9.45;;
13002;SDS011;6566;57.702;11.984;2022-11-23T04:14:12;15.73;;;9.27;;
13002;SDS011;6566;57.702;11.984;2022-11-23T04:16:38;20.30;;;10.25;;
13002;SDS011;6566;57.702;11.984;2022-11-23T04:19:05;17.48;;;10.02;;
13002;SDS011;6566;57.702;11.984;2022-11-23T04:21:32;16.58;;;9.57;;
13002;SDS011;6566;57.702;11.984;2022-11-23T04:23:58;19.10;;;9.95;;
13002;SDS011;6566;57.702;11.984;2022-11-23T04:26:25;17.67;;;11.32;;
13002;SDS011;6566;57.702;11.984;2022-11-23T04:28:50;17.60;;;9.40;;
13002;SDS011;6566;57.702;11.984;2022-11-23T04:31:16;16.90;;;10.40;;
13002;SDS011;6566;57.702;11.984;2022-11-23T04:33:43;20.23;;;10.25;;
13002;SDS011;6566;57.702;11.984;2022-11-23T04:36:10;18.45;;;9.75;;
13002;SDS011;6566;57.702;11.984;2022-11-23T04:38:36;17.40;;;9.75;;
13002;SDS011;6566;57.702;11.984;2022-11-23T04:41:03;20.67;;;10.10;;
13002;SDS011;6566;57.702;11.984;2022-11-23T04:43:29;17.70;;;10.23;;
13002;SDS011;6566;57.702;11.984;2022-11-23T04:45:58;18.55;;;9.98;;
13002;SDS011;6566;57.702;11.984;2022-11-23T04:48:25;14.65;;;9.07;;
13002;SDS011;6566;57.702;11.984;2022-11-23T04:50:50;20.92;;;10.77;;
13002;SDS011;6566;57.702;11.984;2022-11-23T04:53:17;16.48;;;9.50;;
13002;SDS011;6566;57.702;11.984;2022-11-23T04:55:45;17.00;;;10.30;;
13002;SDS011;6566;57.702;11.984;2022-11-23T04:58:12;17.35;;;8.50;;
13002;SDS011;6566;57.702;11.984;2022-11-23T05:00:39;18.75;;;10.07;;
13002;SDS011;6566;57.702;11.984;2022-11-23T05:03:05;17.00;;;9.10;;
13002;SDS011;6566;57.702;11.984;2022-11-23T05:05:31;16.00;;;9.30;;
13002;SDS011;6566;57.702;11.984;2022-11-23T05:07:57;16.80;;;10.32;;
13002;SDS011;6566;57.702;11.984;2022-11-23T05:10:24;17.02;;;9.55;;
13002;SDS011;6566;57.702;11.984;2022-11-23T05:12:51;19.00;;;9.50;;
13002;SDS011;6566;57.702;11.984;2022-11-23T05:15:17;17.02;;;10.07;;
13002;SDS011;6566;57.702;11.984;2022-11-23T05:17:44;13.82;;;9.07;;
13002;SDS011;6566;57.702;11.984;2022-11-23T05:20:11;15.00;;;8.80;;
13002;SDS011;6566;57.702;11.984;2022-11-23T05:22:37;17.45;;;9.38;;
13002;SDS011;6566;57.702;11.984;2022-11-23T05:25:03;16.58;;;9.25;;
13002;SDS011;6566;57.702;11.984;2022-11-23T05:27:30;17.95;;;9.20;;
13002;SDS011;6566;57.702;11.984;2022-11-23T05:29:56;18.42;;;9.55;;
13002;SDS011;6566;57.702;11.984;2022-11-23T05:32:23;17.00;;;8.73;;
13002;SDS011;6566;57.702;11.984;2022-11-23T05:34:49;17.60;;;9.85;;
13002;SDS011;6566;57.702;11.984;2022-11-23T05:37:18;12.52;;;8.52;;
13002;SDS011;6566;57.702;11.984;2022-11-23T05:39:44;17.08;;;8.73;;
13002;SDS011;6566;57.702;11.984;2022-11-23T05:42:11;14.65;;;8.60;;
13002;SDS011;6566;57.702;11.984;2022-11-23T05:44:37;15.63;;;9.30;;
13002;SDS011;6566;57.702;11.984;2022-11-23T05:47:04;15.88;;;8.85;;
13002;SDS011;6566;57.702;11.984;2022-11-23T05:49:30;20.00;;;9.52;;
13002;SDS011;6566;57.702;11.984;2022-11-23T05:51:57;14.07;;;8.40;;
13002;SDS011;6566;57.702;11.984;2022-11-23T05:54:22;16.83;;;9.30;;
13002;SDS011;6566;57.702;11.984;2022-11-23T05:56:48;17.70;;;9.95;;
13002;SDS011;6566;57.702;11.984;2022-11-23T05:59:14;19.83;;;9.93;;
13002;SDS011;6566;57.702;11.984;2022-11-23T06:01:39;19.17;;;9.80;;
13002;SDS011;6566;57.702;11.984;2022-11-23T06:04:06;15.45;;;9.40;;
13002;SDS011;6566;57.702;11.984;2022-11-23T06:06:32;17.10;;;9.57;;
13002;SDS011;6566;57.702;11.984;2022-11-23T06:08:57;16.63;;;9.55;;
13002;SDS011;6566;57.702;11.984;2022-11-23T06:11:23;16.60;;;9.45;;
13002;SDS011;6566;57.702;11.984;2022-11-23T06:13:49;14.00;;;8.35;;
13002;SDS011;6566;57.702;11.984;2022-11-23T06:16:16;16.52;;;8.95;;
13002;SDS011;6566;57.702;11.984;2022-11-23T06:18:41;18.30;;;9.45;;
13002;SDS011;6566;57.702;11.984;2022-11-23T06:21:08;14.13;;;8.43;;
13002;SDS011;6566;57.702;11.984;2022-11-23T06:23:34;14.82;;;8.63;;
13002;SDS011;6566;57.702;11.984;2022-11-23T06:25:59;14.23;;;8.13;;
13002;SDS011;6566;57.702;11.984;2022-11-23T06:28:26;13.50;;;8.45;;
13002;SDS011;6566;57.702;11.984;2022-11-23T06:30:55;13.43;;;7.63;;
13002;SDS011;6566;57.702;11.984;2022-11-23T06:33:22;12.70;;;8.23;;
13002;SDS011;6566;57.702;11.984;2022-11-23T06:35:54;14.80;;;8.13;;
13002;SDS011;6566;57.702;11.984;2022-11-23T06:38:21;10.82;;;7.40;;
13002;SDS011;6566;57.702;11.984;2022-11-23T06:40:47;14.73;;;7.70;;
13002;SDS011;6566;57.702;11.984;2022-11-23T06:43:14;12.75;;;7.78;;
13002;SDS011;6566;57.702;11.984;2022-11-23T06:45:40;12.68;;;7.35;;
13002;SDS011;6566;57.702;11.984;2022-11-23T06:48:07;10.30;;;7.28;;
13002;SDS011;6566;57.702;11.984;2022-11-23T06:50:33;11.93;;;6.88;;
13002;SDS011;6566;57.702;11.984;2022-11-23T06:53:00;11.57;;;7.32;;
13002;SDS011;6566;57.702;11.984;2022-11-23T06:55:27;11.10;;;7.03;;
13002;SDS011;6566;57.702;11.984;2022-11-23T06:57:55;11.80;;;6.50;;
13002;SDS011;6566;57.702;11.984;2022-11-23T07:00:22;10.77;;;6.90;;
13002;SDS011;6566;57.702;11.984;2022-11-23T07:02:52;11.05;;;6.53;;
13002;SDS011;6566;57.702;11.984;2022-11-23T07:05:19;9.82;;;6.38;;
13002;SDS011;6566;57.702;11.984;2022-11-23T07:07:46;11.30;;;7.00;;
13002;SDS011;6566;57.702;11.984;2022-11-23T07:10:13;11.25;;;6.40;;
13002;SDS011;6566;57.702;11.984;2022-11-23T07:12:40;9.45;;;6.25;;
13002;SDS011;6566;57.702;11.984;2022-11-23T07:15:05;10.52;;;6.95;;
13002;SDS011;6566;57.702;11.984;2022-11-23T07:17:32;11.38;;;7.25;;
13002;SDS011;6566;57.702;11.984;2022-11-23T07:19:58;9.07;;;5.70;;
13002;SDS011;6566;57.702;11.984;2022-11-23T07:22:25;12.20;;;6.60;;
13002;SDS011;6566;57.702;11.984;2022-11-23T07:24:52;10.43;;;6.60;;
13002;SDS011;6566;57.702;11.984;2022-11-23T07:27:18;9.50;;;6.28;;
13002;SDS011;6566;57.702;11.984;2022-11-23T07:29:45;7.78;;;5.80;;
13002;SDS011;6566;57.702;11.984;2022-11-23T07:32:12;8.55;;;5.82;;
13002;SDS011;6566;57.702;11.984;2022-11-23T07:34:39;8.18;;;5.55;;
13002;SDS011;6566;57.702;11.984;2022-11-23T07:37:06;7.80;;;5.70;;
13002;SDS011;6566;57.702;11.984;2022-11-23T07:39:33;9.55;;;5.72;;
13002;SDS011;6566;57.702;11.984;2022-11-23T07:42:00;7.20;;;5.13;;
13002;SDS011;6566;57.702;11.984;2022-11-23T07:44:26;8.80;;;5.22;;
13002;SDS011;6566;57.702;11.984;2022-11-23T07:46:53;7.55;;;5.00;;
13002;SDS011;6566;57.702;11.984;2022-11-23T07:49:20;9.13;;;5.13;;
13002;SDS011;6566;57.702;11.984;2022-11-23T07:51:47;8.55;;;5.47;;
13002;SDS011;6566;57.702;11.984;2022-11-23T07:54:15;8.10;;;5.30;;
13002;SDS011;6566;57.702;11.984;2022-11-23T07:56:42;7.18;;;4.90;;
13002;SDS011;6566;57.702;11.984;2022-11-23T07:59:09;8.60;;;5.60;;
13002;SDS011;6566;57.702;11.984;2022-11-23T08:01:36;6.75;;;5.05;;
13002;SDS011;6566;57.702;11.984;2022-11-23T08:04:02;11.35;;;6.10;;
13002;SDS011;6566;57.702;11.984;2022-11-23T08:06:29;7.55;;;5.28;;
13002;SDS011;6566;57.702;11.984;2022-11-23T08:08:56;7.93;;;5.28;;
13002;SDS011;6566;57.702;11.984;2022-11-23T08:11:24;8.60;;;5.45;;
13002;SDS011;6566;57.702;11.984;2022-11-23T08:13:51;7.78;;;5.05;;
13002;SDS011;6566;57.702;11.984;2022-11-23T08:16:18;6.57;;;5.18;;
13002;SDS011;6566;57.702;11.984;2022-11-23T08:18:45;10.07;;;5.55;;
13002;SDS011;6566;57.702;11.984;2022-11-23T08:21:12;7.40;;;5.20;;
13002;SDS011;6566;57.702;11.984;2022-11-23T08:23:38;7.53;;;4.80;;
13002;SDS011;6566;57.702;11.984;2022-11-23T08:26:05;7.97;;;5.28;;
13002;SDS011;6566;57.702;11.984;2022-11-23T08:28:32;8.95;;;5.43;;
13002;SDS011;6566;57.702;11.984;2022-11-23T08:30:57;7.50;;;5.28;;
13002;SDS011;6566;57.702;11.984;2022-11-23T08:33:24;7.50;;;5.20;;
13002;SDS011;6566;57.702;11.984;2022-11-23T08:35:50;8.27;;;4.93;;
13002;SDS011;6566;57.702;11.984;2022-11-23T08:38:15;7.35;;;4.90;;
13002;SDS011;6566;57.702;11.984;2022-11-23T08:40:42;8.68;;;5.18;;
13002;SDS011;6566;57.702;11.984;2022-11-23T08:43:07;9.13;;;5.00;;
13002;SDS011;6566;57.702;11.984;2022-11-23T08:45:34;7.20;;;5.00;;
13002;SDS011;6566;57.702;11.984;2022-11-23T08:48:00;6.60;;;4.60;;
13002;SDS011;6566;57.702;11.984;2022-11-23T08:50:27;7.60;;;4.32;;
13002;SDS011;6566;57.702;11.984;2022-11-23T08:52:54;6.57;;;4.78;;
13002;SDS011;6566;57.702;11.984;2022-11-23T08:55:21;8.30;;;5.10;;
13002;SDS011;6566;57.702;11.984;2022-11-23T08:57:46;7.43;;;4.60;;
13002;SDS011;6566;57.702;11.984;2022-11-23T09:00:13;7.53;;;4.90;;
13002;SDS011;6566;57.702;11.984;2022-11-23T09:02:39;7.18;;;5.20;;
13002;SDS011;6566;57.702;11.984;2022-11-23T09:05:06;7.30;;;4.60;;
13002;SDS011;6566;57.702;11.984;2022-11-23T09:07:32;5.85;;;4.68;;
13002;SDS011;6566;57.702;11.984;2022-11-23T09:09:58;5.15;;;4.20;;
13002;SDS011;6566;57.702;11.984;2022-11-23T09:12:23;5.18;;;4.03;;
13002;SDS011;6566;57.702;11.984;2022-11-23T09:14:49;6.72;;;4.75;;
13002;SDS011;6566;57.702;11.984;2022-11-23T09:17:16;6.53;;;4.50;;
13002;SDS011;6566;57.702;11.984;2022-11-23T09:19:44;6.55;;;4.47;;
13002;SDS011;6566;57.702;11.984;2022-11-23T09:22:09;6.78;;;4.60;;
13002;SDS011;6566;57.702;11.984;2022-11-23T09:24:36;7.80;;;5.10;;
13002;SDS011;6566;57.702;11.984;2022-11-23T09:27:01;7.05;;;4.15;;
13002;SDS011;6566;57.702;11.984;2022-11-23T09:29:28;5.43;;;4.07;;
13002;SDS011;6566;57.702;11.984;2022-11-23T09:31:54;4.25;;;3.45;;
13002;SDS011;6566;57.702;11.984;2022-11-23T09:34:20;6.30;;;3.90;;
13002;SDS011;6566;57.702;11.984;2022-11-23T09:36:49;7.20;;;4.05;;
13002;SDS011;6566;57.702;11.984;2022-11-23T09:39:16;6.35;;;4.13;;
13002;SDS011;6566;57.702;11.984;2022-11-23T09:52:55;3.55;;;2.88;;
13002;SDS011;6566;57.702;11.984;2022-11-23T09:58:02;4.43;;;2.88;;
13002;SDS011;6566;57.702;11.984;2022-11-23T10:00:51;4.45;;;2.97;;
13002;SDS011;6566;57.702;11.984;2022-11-23T10:03:16;2.97;;;2.65;;
13002;SDS011;6566;57.702;11.984;2022-11-23T10:05:54;6.20;;;2.95;;
13002;SDS011;6566;57.702;11.984;2022-11-23T10:08:29;3.35;;;3.03;;
13002;SDS011;6566;57.702;11.984;2022-11-23T10:11:11;4.53;;;2.95;;
13002;SDS011;6566;57.702;11.984;2022-11-23T10:14:07;4.68;;;2.78;;
13002;SDS011;6566;57.702;11.984;2022-11-23T10:19:18;4.43;;;2.88;;
13002;SDS011;6566;57.702;11.984;2022-11-23T10:24:36;3.72;;;2.78;;
13002;SDS011;6566;57.702;11.984;2022-11-23T10:27:09;2.83;;;2.60;;
13002;SDS011;6566;57.702;11.984;2022-11-23T10:29:37;3.80;;;2.95;;
13002;SDS011;6566;57.702;11.984;2022-11-23T10:32:11;3.17;;;2.60;;
13002;SDS011;6566;57.702;11.984;2022-11-23T10:37:24;4.55;;;2.88;;
13002;SDS011;6566;57.702;11.984;2022-11-23T10:39:51;3.75;;;2.70;;
13002;SDS011;6566;57.702;11.984;2022-11-23T10:42:29;4.88;;;2.72;;
13002;SDS011;6566;57.702;11.984;2022-11-23T10:44:57;2.63;;;2.17;;
13002;SDS011;6566;57.702;11.984;2022-11-23T10:47:37;4.70;;;2.58;;
13002;SDS011;6566;57.702;11.984;2022-11-23T10:50:27;3.47;;;2.78;;
13002;SDS011;6566;57.702;11.984;2022-11-23T10:52:56;2.65;;;2.42;;
13002;SDS011;6566;57.702;11.984;2022-11-23T10:55:26;5.43;;;2.58;;
13002;SDS011;6566;57.702;11.984;2022-11-23T10:57:52;3.50;;;2.22;;
13002;SDS011;6566;57.702;11.984;2022-11-23T11:00:19;3.85;;;2.28;;
13002;SDS011;6566;57.702;11.984;2022-11-23T11:02:51;3.45;;;2.58;;
13002;SDS011;6566;57.702;11.984;2022-11-23T11:05:29;4.28;;;2.47;;
13002;SDS011;6566;57.702;11.984;2022-11-23T11:07:55;2.78;;;2.40;;
13002;SDS011;6566;57.702;11.984;2022-11-23T11:15:53;3.28;;;2.70;;
13002;SDS011;6566;57.702;11.984;2022-11-23T11:18:20;2.65;;;2.42;;
13002;SDS011;6566;57.702;11.984;2022-11-23T11:20:51;3.42;;;2.80;;
13002;SDS011;6566;57.702;11.984;2022-11-23T11:23:20;5.30;;;2.90;;
13002;SDS011;6566;57.702;11.984;2022-11-23T11:25:47;3.80;;;2.75;;
13002;SDS011;6566;57.702;11.984;2022-11-23T11:28:35;3.67;;;3.17;;
13002;SDS011;6566;57.702;11.984;2022-11-23T11:33:49;4.38;;;2.72;;
13002;SDS011;6566;57.702;11.984;2022-11-23T11:36:17;3.38;;;2.65;;
13002;SDS011;6566;57.702;11.984;2022-11-23T11:38:48;5.85;;;2.78;;
13002;SDS011;6566;57.702;11.984;2022-11-23T11:41:16;5.68;;;2.70;;
13002;SDS011;6566;57.702;11.984;2022-11-23T11:43:48;3.53;;;2.92;;
13002;SDS011;6566;57.702;11.984;2022-11-23T11:46:26;3.72;;;2.70;;
13002;SDS011;6566;57.702;11.984;2022-11-23T11:49:20;4.30;;;2.92;;
13002;SDS011;6566;57.702;11.984;2022-11-23T11:51:47;4.07;;;3.13;;
13002;SDS011;6566;57.702;11.984;2022-11-23T11:56:57;4.43;;;3.10;;
13002;SDS011;6566;57.702;11.984;2022-11-23T11:59:38;4.25;;;3.28;;
13002;SDS011;6566;57.702;11.984;2022-11-23T12:02:25;4.32;;;2.78;;
13002;SDS011;6566;57.702;11.984;2022-11-23T12:10:27;4.50;;;3.28;;
13002;SDS011;6566;57.702;11.984;2022-11-23T12:12:53;6.57;;;3.60;;
13002;SDS011;6566;57.702;11.984;2022-11-23T12:15:23;5.18;;;3.58;;
13002;SDS011;6566;57.702;11.984;2022-11-23T12:20:47;6.10;;;3.63;;
13002;SDS011;6566;57.702;11.984;2022-11-23T12:23:22;7.25;;;4.15;;
13002;SDS011;6566;57.702;11.984;2022-11-23T12:25:57;6.78;;;4.25;;
13002;SDS011;6566;57.702;11.984;2022-11-23T12:39:43;7.97;;;4.38;;
13002;SDS011;6566;57.702;11.984;2022-11-23T12:42:25;5.85;;;3.80;;
13002;SDS011;6566;57.702;11.984;2022-11-23T12:58:43;5.53;;;4.32;;
13002;SDS011;6566;57.702;11.984;2022-11-23T13:01:06;6.65;;;4.05;;
13002;SDS011;6566;57.702;11.984;2022-11-23T13:22:19;6.05;;;4.03;;
13002;SDS011;6566;57.702;11.984;2022-11-23T13:27:41;5.10;;;3.97;;
13002;SDS011;6566;57.702;11.984;2022-11-23T13:30:18;6.10;;;4.25;;
13002;SDS011;6566;57.702;11.984;2022-11-23T13:40:35;6.63;;;3.80;;
13002;SDS011;6566;57.702;11.984;2022-11-23T13:43:42;6.65;;;3.80;;
13002;SDS011;6566;57.702;11.984;2022-11-23T13:48:42;4.75;;;3.70;;
13002;SDS011;6566;57.702;11.984;2022-11-23T13:51:33;7.00;;;4.28;;
13002;SDS011;6566;57.702;11.984;2022-11-23T13:54:03;5.70;;;3.97;;
13002;SDS011;6566;57.702;11.984;2022-11-23T13:56:34;6.07;;;4.03;;
13002;SDS011;6566;57.702;11.984;2022-11-23T14:04:33;5.60;;;4.13;;
13002;SDS011;6566;57.702;11.984;2022-11-23T14:09:35;5.38;;;3.65;;
13002;SDS011;6566;57.702;11.984;2022-11-23T14:34:03;5.72;;;3.95;;
13002;SDS011;6566;57.702;11.984;2022-11-23T14:36:47;6.10;;;3.88;;
13002;SDS011;6566;57.702;11.984;2022-11-23T14:41:52;5.82;;;3.50;;
13002;SDS011;6566;57.702;11.984;2022-11-23T14:44:22;5.40;;;4.10;;
13002;SDS011;6566;57.702;11.984;2022-11-23T14:47:00;6.65;;;4.45;;
13002;SDS011;6566;57.702;11.984;2022-11-23T14:49:27;8.70;;;4.25;;
13002;SDS011;6566;57.702;11.984;2022-11-23T14:51:53;6.20;;;3.60;;
13002;SDS011;6566;57.702;11.984;2022-11-23T14:54:20;6.03;;;4.07;;
13002;SDS011;6566;57.702;11.984;2022-11-23T14:56:47;6.22;;;4.20;;
13002;SDS011;6566;57.702;11.984;2022-11-23T15:01:50;5.72;;;3.60;;
13002;SDS011;6566;57.702;11.984;2022-11-23T15:04:32;6.15;;;4.05;;
13002;SDS011;6566;57.702;11.984;2022-11-23T15:07:03;7.57;;;3.90;;
13002;SDS011;6566;57.702;11.984;2022-11-23T15:12:28;5.45;;;3.72;;
13002;SDS011;6566;57.702;11.984;2022-11-23T15:15:27;5.00;;;4.00;;
13002;SDS011;6566;57.702;11.984;2022-11-23T15:18:04;6.15;;;4.18;;
13002;SDS011;6566;57.702;11.984;2022-11-23T15:20:34;9.90;;;3.88;;
13002;SDS011;6566;57.702;11.984;2022-11-23T15:23:05;6.68;;;4.22;;
13002;SDS011;6566;57.702;11.984;2022-11-23T15:25:32;5.63;;;4.20;;
13002;SDS011;6566;57.702;11.984;2022-11-23T15:27:57;6.93;;;4.50;;
13002;SDS011;6566;57.702;11.984;2022-11-23T15:30:29;7.05;;;4.50;;
13002;SDS011;6566;57.702;11.984;2022-11-23T15:33:02;5.63;;;3.92;;
13002;SDS011;6566;57.702;11.984;2022-11-23T15:35:37;5.88;;;3.88;;
13002;SDS011;6566;57.702;11.984;2022-11-23T15:38:10;7.57;;;4.50;;
13002;SDS011;6566;57.702;11.984;2022-11-23T15:40:38;7.22;;;4.13;;
13002;SDS011;6566;57.702;11.984;2022-11-23T15:43:16;7.88;;;4.28;;
13002;SDS011;6566;57.702;11.984;2022-11-23T15:50:56;8.57;;;4.00;;
13002;SDS011;6566;57.702;11.984;2022-11-23T15:53:34;5.07;;;3.78;;
13002;SDS011;6566;57.702;11.984;2022-11-23T15:56:10;6.82;;;4.45;;
13002;SDS011;6566;57.702;11.984;2022-11-23T15:58:39;6.75;;;3.83;;
13002;SDS011;6566;57.702;11.984;2022-11-23T16:01:12;5.47;;;4.07;;
13002;SDS011;6566;57.702;11.984;2022-11-23T16:03:57;5.20;;;4.05;;
13002;SDS011;6566;57.702;11.984;2022-11-23T16:06:41;6.50;;;4.05;;
13002;SDS011;6566;57.702;11.984;2022-11-23T16:11:57;6.72;;;4.22;;
13002;SDS011;6566;57.702;11.984;2022-11-23T16:14:27;8.15;;;4.45;;
13002;SDS011;6566;57.702;11.984;2022-11-23T16:17:04;6.90;;;4.50;;
13002;SDS011;6566;57.702;11.984;2022-11-23T16:19:31;6.22;;;4.53;;
13002;SDS011;6566;57.702;11.984;2022-11-23T16:22:01;6.35;;;4.90;;
13002;SDS011;6566;57.702;11.984;2022-11-23T16:24:29;6.47;;;4.55;;
13002;SDS011;6566;57.702;11.984;2022-11-23T16:26:57;6.38;;;4.30;;
13002;SDS011;6566;57.702;11.984;2022-11-23T16:29:26;6.45;;;4.22;;
13002;SDS011;6566;57.702;11.984;2022-11-23T16:31:55;6.88;;;4.22;;
13002;SDS011;6566;57.702;11.984;2022-11-23T16:34:23;5.70;;;3.97;;
13002;SDS011;6566;57.702;11.984;2022-11-23T16:36:49;5.35;;;4.38;;
13002;SDS011;6566;57.702;11.984;2022-11-23T16:39:16;5.97;;;4.32;;
13002;SDS011;6566;57.702;11.984;2022-11-23T16:41:42;5.85;;;4.22;;
13002;SDS011;6566;57.702;11.984;2022-11-23T16:44:09;5.65;;;4.05;;
13002;SDS011;6566;57.702;11.984;2022-11-23T16:46:34;7.10;;;4.38;;
13002;SDS011;6566;57.702;11.984;2022-11-23T16:49:02;6.97;;;4.00;;
13002;SDS011;6566;57.702;11.984;2022-11-23T16:51:29;6.43;;;4.20;;
13002;SDS011;6566;57.702;11.984;2022-11-23T16:53:55;7.05;;;4.65;;
13002;SDS011;6566;57.702;11.984;2022-11-23T16:56:22;7.85;;;4.97;;
13002;SDS011;6566;57.702;11.984;2022-11-23T16:58:49;7.63;;;4.55;;
13002;SDS011;6566;57.702;11.984;2022-11-23T17:01:22;7.65;;;5.50;;
13002;SDS011;6566;57.702;11.984;2022-11-23T17:03:49;8.50;;;4.93;;
13002;SDS011;6566;57.702;11.984;2022-11-23T17:06:15;6.78;;;4.85;;
13002;SDS011;6566;57.702;11.984;2022-11-23T17:08:49;6.32;;;4.55;;
13002;SDS011;6566;57.702;11.984;2022-11-23T17:11:20;9.02;;;5.00;;
13002;SDS011;6566;57.702;11.984;2022-11-23T17:13:48;6.57;;;4.60;;
13002;SDS011;6566;57.702;11.984;2022-11-23T17:16:16;10.45;;;5.78;;